Hyundai Mercury — 2BSD7 — position and weather

sailwx.info

Track history (hours):
 
Tides and Currents Weather Stations Pressure Air Temp Water Temp Dewpoint Dewpoint Depression Visibility Wind Speed Wind Dir Waves Ship Positions

Hyundai Mercury

Last reported at 2013-Sep-19 21:04 UTC. Time now 2014-Oct-24 08:32 UTC.
Position N 31°06' E 122°49'.
Warning: this ship's position is years out of date!

Length 340 m; draft 11.6 m.

Type: Ship (hazmat cat A). MMSI: 235068861.

Date/timePositionNaut miles runAvg speedWind from/ knotsBaromVisibWave heightAir tempDewpointWater temp
2013-Sep-19 21:04N 31°06' E 122°49'917.0
2013-Sep-19 20:31N 31°06' E 122°38'1414.6
2013-Sep-19 19:32N 31°06' E 122°21'1914.4
2013-Sep-19 18:15N 31°14' E 122°02'1013.7
2013-Sep-19 17:33N 31°16' E 121°51'1010.4
2013-Sep-19 16:33N 31°21' E 121°40'5 4.9
2013-Sep-19 15:33N 31°23' E 121°34'0 0.0
2013-Sep-19 14:20N 31°23' E 121°34'0 0.0
2013-Sep-19 13:32N 31°23' E 121°34'0 0.0
2013-Sep-19 12:20N 31°23' E 121°34'0 0.0
2013-Sep-19 11:20N 31°23' E 121°34'0 0.0
2013-Sep-19 10:32N 31°23' E 121°34'0 0.0
2013-Sep-19 09:14N 31°23' E 121°34'0 0.0
2013-Sep-19 08:32N 31°23' E 121°34'0 0.0
2013-Sep-19 07:32N 31°23' E 121°34'0 0.0
2013-Sep-19 06:26N 31°23' E 121°34'0 0.0
2013-Sep-19 05:32N 31°23' E 121°34'0 0.0
2013-Sep-19 04:32N 31°23' E 121°34'0 0.0
2013-Sep-19 03:32N 31°23' E 121°34'0 0.0
2013-Sep-19 02:20N 31°23' E 121°34'0 0.0
2013-Sep-19 01:32N 31°23' E 121°34'0 0.0
2013-Sep-19 00:32N 31°23' E 121°34'0 0.0
2013-Sep-18 23:26N 31°23' E 121°34'0 0.0
2013-Sep-18 22:32N 31°23' E 121°34'0 0.0
2013-Sep-18 21:26N 31°23' E 121°34'0 0.0
2013-Sep-18 20:32N 31°23' E 121°34'0 0.0
2013-Sep-18 19:32N 31°23' E 121°34'0 0.0
2013-Sep-18 18:32N 31°23' E 121°34'0 0.0
2013-Sep-18 17:26N 31°23' E 121°34'0 0.0
2013-Sep-18 16:32N 31°23' E 121°34'0 0.2
2013-Sep-18 15:33N 31°23' E 121°34'7 7.2
2013-Sep-18 14:33N 31°20' E 121°42'10 9.6
2013-Sep-18 13:32N 31°16' E 121°53'20 9.8
2013-Sep-18 11:28N 31°08' E 122°15'12 9.2
2013-Sep-18 10:12N 31°05' E 122°28'1013.2
2013-Sep-18 09:29N 31°06' E 122°39'1312.5
2013-Sep-18 08:28N 30°59' E 122°51'1314.7
2013-Sep-18 07:33N 30°47' E 122°57'1515.0
2013-Sep-18 06:34N 30°32' E 123°02'5 5.1
2013-Sep-18 05:33N 30°28' E 123°05'1 1.1
2013-Sep-18 04:31N 30°29' E 123°06'1 1.0
2013-Sep-18 03:33N 30°29' E 123°07'1 1.5
2013-Sep-18 02:32N 30°28' E 123°08'2 1.9
2013-Sep-18 01:28N 30°26' E 123°10'5 2.4
2013-Sep-17 23:23N 30°23' E 123°05'1010.1
2013-Sep-17 22:25N 30°14' E 123°04'9 9.5
2013-Sep-17 21:31N 30°05' E 123°05'32 8.1
2013-Sep-17 17:32N 29°43' E 122°39'9 7.7
2013-Sep-17 16:24N 29°41' E 122°29'810.1
2013-Sep-17 15:33N 29°44' E 122°20'1111.1
2013-Sep-17 14:33N 29°52' E 122°11'1212.5
2013-Sep-17 13:34N 29°58' E 121°58'7 7.0
2013-Sep-17 12:33N 29°57' E 121°50'0 0.0
2013-Sep-17 11:33N 29°57' E 121°50'0 0.0
2013-Sep-17 10:33N 29°57' E 121°50'0 0.0
2013-Sep-17 09:33N 29°57' E 121°50'0 0.0
2013-Sep-17 08:33N 29°57' E 121°50'0 0.0
2013-Sep-17 07:33N 29°57' E 121°50'0 0.0
2013-Sep-17 06:33N 29°57' E 121°50'0 0.0
2013-Sep-17 05:33N 29°57' E 121°50'0 0.0
2013-Sep-17 04:33N 29°57' E 121°50'0 0.0
2013-Sep-17 03:33N 29°57' E 121°50'0 0.0
2013-Sep-17 02:33N 29°57' E 121°50'0 0.0
2013-Sep-17 01:33N 29°57' E 121°50'0 0.0
2013-Sep-17 00:33N 29°57' E 121°50'1 1.4
2013-Sep-16 23:33N 29°58' E 121°51'1211.7
2013-Sep-16 22:33N 29°55' E 122°05'1212.5
2013-Sep-16 21:33N 29°47' E 122°16'6 6.5
2013-Sep-16 20:33N 29°44' E 122°22'4 3.7
2013-Sep-16 19:33N 29°44' E 122°26'1211.5
2013-Sep-16 18:33N 29°50' E 122°38'1312.8
2013-Sep-16 17:33N 29°59' E 122°49'1312.5
2013-Sep-16 16:31N 30°08' E 122°60'1312.1
2013-Sep-16 15:28N 30°15' E 123°11'1212.0
2013-Sep-16 14:28N 30°23' E 123°22'1212.4
2013-Sep-16 13:29N 30°31' E 123°33'1213.0
2013-Sep-16 12:32N 30°39' E 123°44'1313.1
2013-Sep-16 11:33N 30°48' E 123°55'1211.6
2013-Sep-16 10:32N 30°56' E 124°05'1211.9
2013-Sep-16 09:31N 31°04' E 124°15'1212.0
2013-Sep-16 08:30N 31°12' E 124°26'4412.9
2013-Sep-16 05:06N 31°41' E 125°05'2212.8
2013-Sep-16 03:26N 31°54' E 125°24'2312.2
2013-Sep-16 01:31N 32°10' E 125°45'4113.3
2013-Sep-15 22:27N 32°37' E 126°21'1713.8
2013-Sep-15 21:11N 32°49' E 126°36'914.0
2013-Sep-15 20:33N 32°54' E 126°45'174 3.8
2013-Sep-13 23:18N 34°53' E 129°17'  
Track history (hours):
 
Tides and Currents Weather Stations Pressure Air Temp Water Temp Dewpoint Dewpoint Depression Visibility Wind Speed Wind Dir Waves Ship Positions

Hyundai Mercury

Last reported at 2013-Sep-19 21:04 UTC. Time now 2014-Oct-24 08:32 UTC.
Position N 31°06' E 122°49'.
Warning: this ship's position is years out of date!

Length 340 m; draft 11.6 m.

Type: Ship (hazmat cat A). MMSI: 235068861.

Date/timePositionNaut miles runAvg speedWind from/ knotsBaromVisibWave heightAir tempDewpointWater temp
2013-Sep-19 21:04N 31°06' E 122°49'917.0
2013-Sep-19 20:31N 31°06' E 122°38'1414.6
2013-Sep-19 19:32N 31°06' E 122°21'1914.4
2013-Sep-19 18:15N 31°14' E 122°02'1013.7
2013-Sep-19 17:33N 31°16' E 121°51'1010.4
2013-Sep-19 16:33N 31°21' E 121°40'5 4.9
2013-Sep-19 15:33N 31°23' E 121°34'0 0.0
2013-Sep-19 14:20N 31°23' E 121°34'0 0.0
2013-Sep-19 13:32N 31°23' E 121°34'0 0.0
2013-Sep-19 12:20N 31°23' E 121°34'0 0.0
2013-Sep-19 11:20N 31°23' E 121°34'0 0.0
2013-Sep-19 10:32N 31°23' E 121°34'0 0.0
2013-Sep-19 09:14N 31°23' E 121°34'0 0.0
2013-Sep-19 08:32N 31°23' E 121°34'0 0.0
2013-Sep-19 07:32N 31°23' E 121°34'0 0.0
2013-Sep-19 06:26N 31°23' E 121°34'0 0.0
2013-Sep-19 05:32N 31°23' E 121°34'0 0.0
2013-Sep-19 04:32N 31°23' E 121°34'0 0.0
2013-Sep-19 03:32N 31°23' E 121°34'0 0.0
2013-Sep-19 02:20N 31°23' E 121°34'0 0.0
2013-Sep-19 01:32N 31°23' E 121°34'0 0.0
2013-Sep-19 00:32N 31°23' E 121°34'0 0.0
2013-Sep-18 23:26N 31°23' E 121°34'0 0.0
2013-Sep-18 22:32N 31°23' E 121°34'0 0.0
2013-Sep-18 21:26N 31°23' E 121°34'0 0.0
2013-Sep-18 20:32N 31°23' E 121°34'0 0.0
2013-Sep-18 19:32N 31°23' E 121°34'0 0.0
2013-Sep-18 18:32N 31°23' E 121°34'0 0.0
2013-Sep-18 17:26N 31°23' E 121°34'0 0.0
2013-Sep-18 16:32N 31°23' E 121°34'0 0.2
2013-Sep-18 15:33N 31°23' E 121°34'7 7.2
2013-Sep-18 14:33N 31°20' E 121°42'10 9.6
2013-Sep-18 13:32N 31°16' E 121°53'20 9.8
2013-Sep-18 11:28N 31°08' E 122°15'12 9.2
2013-Sep-18 10:12N 31°05' E 122°28'1013.2
2013-Sep-18 09:29N 31°06' E 122°39'1312.5
2013-Sep-18 08:28N 30°59' E 122°51'1314.7
2013-Sep-18 07:33N 30°47' E 122°57'1515.0
2013-Sep-18 06:34N 30°32' E 123°02'5 5.1
2013-Sep-18 05:33N 30°28' E 123°05'1 1.1
2013-Sep-18 04:31N 30°29' E 123°06'1 1.0
2013-Sep-18 03:33N 30°29' E 123°07'1 1.5
2013-Sep-18 02:32N 30°28' E 123°08'2 1.9
2013-Sep-18 01:28N 30°26' E 123°10'5 2.4
2013-Sep-17 23:23N 30°23' E 123°05'1010.1
2013-Sep-17 22:25N 30°14' E 123°04'9 9.5
2013-Sep-17 21:31N 30°05' E 123°05'32 8.1
2013-Sep-17 17:32N 29°43' E 122°39'9 7.7
2013-Sep-17 16:24N 29°41' E 122°29'810.1
2013-Sep-17 15:33N 29°44' E 122°20'1111.1
2013-Sep-17 14:33N 29°52' E 122°11'1212.5
2013-Sep-17 13:34N 29°58' E 121°58'7 7.0
2013-Sep-17 12:33N 29°57' E 121°50'0 0.0
2013-Sep-17 11:33N 29°57' E 121°50'0 0.0
2013-Sep-17 10:33N 29°57' E 121°50'0 0.0
2013-Sep-17 09:33N 29°57' E 121°50'0 0.0
2013-Sep-17 08:33N 29°57' E 121°50'0 0.0
2013-Sep-17 07:33N 29°57' E 121°50'0 0.0
2013-Sep-17 06:33N 29°57' E 121°50'0 0.0
2013-Sep-17 05:33N 29°57' E 121°50'0 0.0
2013-Sep-17 04:33N 29°57' E 121°50'0 0.0
2013-Sep-17 03:33N 29°57' E 121°50'0 0.0
2013-Sep-17 02:33N 29°57' E 121°50'0 0.0
2013-Sep-17 01:33N 29°57' E 121°50'0 0.0
2013-Sep-17 00:33N 29°57' E 121°50'1 1.4
2013-Sep-16 23:33N 29°58' E 121°51'1211.7
2013-Sep-16 22:33N 29°55' E 122°05'1212.5
2013-Sep-16 21:33N 29°47' E 122°16'6 6.5
2013-Sep-16 20:33N 29°44' E 122°22'4 3.7
2013-Sep-16 19:33N 29°44' E 122°26'1211.5
2013-Sep-16 18:33N 29°50' E 122°38'1312.8
2013-Sep-16 17:33N 29°59' E 122°49'1312.5
2013-Sep-16 16:31N 30°08' E 122°60'1312.1
2013-Sep-16 15:28N 30°15' E 123°11'1212.0
2013-Sep-16 14:28N 30°23' E 123°22'1212.4
2013-Sep-16 13:29N 30°31' E 123°33'1213.0
2013-Sep-16 12:32N 30°39' E 123°44'1313.1
2013-Sep-16 11:33N 30°48' E 123°55'1211.6
2013-Sep-16 10:32N 30°56' E 124°05'1211.9
2013-Sep-16 09:31N 31°04' E 124°15'1212.0
2013-Sep-16 08:30N 31°12' E 124°26'4412.9
2013-Sep-16 05:06N 31°41' E 125°05'2212.8
2013-Sep-16 03:26N 31°54' E 125°24'2312.2
2013-Sep-16 01:31N 32°10' E 125°45'4113.3
2013-Sep-15 22:27N 32°37' E 126°21'1713.8
2013-Sep-15 21:11N 32°49' E 126°36'914.0
2013-Sep-15 20:33N 32°54' E 126°45'174 3.8
2013-Sep-13 23:18N 34°53' E 129°17'  

Dump ship's entire track history